Portada
METAR-TAF:

METAR-TAF

Aeroports :

Port Vila, Éfaté, Vanuatu

latitud: 17-42S, longitud: 168-18E, altitud: 20 m

Observació

L'informe es va fer fa 48 minuts, a les 01:00 UTC
Vent 8 kt del Est/Sud-Est
Temperatura 32°C
Humitat 59%
Pressió 1005 hPa
Visibilitat 10 km o més
Cel ennuvolat a una alçada de 2500 ft

METAR: NVVV 160100Z 11008KT 9999 BKN025 32/23 Q1005

Hora: 12:48 (01:48 UTC)

Pronòstic

L'informe es va fer fa 3 hores i 28 minuts, a les 22:20 UTC
Pronòstic vàlid del 16 a les 00 UTC al 16 a les 24 UTC
Vent 12 kt del Est/Sud-Est
Visibilitat 10 km o més
Núvols disperses a una alçada de 2000 ft
Probabilitat 30%
entre IN i TE UTC
Visibilitat: 9000 m
Cel ennuvolat a una alçada de 1800 ft
xàfecs de pluja

TAF: NVVV 152220Z 1600/1624 11012KT 9999 SCT020 PROB30 INTER 1600/1606 9000 -SHRA BKN018

Observacions i pronòstics meteorològics de més de 4000 aeroports (METAR i TAF).

Les estacions disponibles són els punts grocs i vermells al mapa.

Posi el ratolí al punt desitjat per veure el nom de l'estació.

Feu clic per veure les observacions i els pronòstics meteorològics.

Per canviar el mapa: feu clic els botons verds amb una creu de color negre per apropar; al botó verd amb un guió per allunyar la imatge; o en les fletxes verdes per a mapes adjacents.


METAR-TAF: